Terminal Aerodrome Forecast
Issued by NWS Dodge City, KS

Home | Current Version | Previous Version | Graphics & Text | Print | Product List | Glossary Off
Versions: 1 2 3 4 5 6 7 8 9 10 11 12 13 14 15 16 17

000
FTUS43 KDDC 212012 AAC
TAFDDC
TAF AMD
KDDC 212012Z 2120/2218 03012G17KT P6SM SHRA OVC025
      TEMPO 2121/2124 3SM -RA OVC012
     FM220200 01014G22KT 5SM BR OVC010
     FM221500 01011G19KT P6SM BKN035=

USA.gov is the U.S. government's official web portal to all federal, state and local government web resources and services.